Tilos, Greece
Current Conditions -  °F | °C
As of 7:20 AM on Monday 22 Dec 2014 (Local Time) from LGKO Reporting Station
Few Clouds Few Clouds  
Wind Chill: 50°   Ceiling: Unl
Heat Index: 50°   Visibility: 6mi
Dew Point: 34°   Wind: 18mph
Humidity: 54%   Direction: 350°N
Pressure: 30.15"   Gusts: 30mph
Location:  36.42°N, 27.37°E
Report Text: LGKO 220520Z 35016G26KT 9999 FEW020 10/01 Q1021
Loading
Personal Weather Stations






























Interactive Weather Map New forecast layout! Learn more

10-Day Weather Forecast

Advertisements
Track Severe Weather on mobile